createdAt,value
2019-01-27T00:01:42.585Z,65.87
2019-01-27T00:04:14.194Z,68.80
2019-01-27T00:06:45.683Z,68.87
2019-01-27T00:09:17.486Z,72.03
2019-01-27T00:11:49.368Z,71.73
2019-01-27T00:14:20.895Z,67.90
2019-01-27T00:16:52.387Z,64.63
2019-01-27T00:19:24.213Z,71.73
2019-01-27T00:21:55.919Z,66.53
2019-01-27T00:24:27.734Z,67.97
2019-01-27T00:26:59.275Z,74.67
2019-01-27T00:29:30.785Z,68.57
2019-01-27T00:32:02.325Z,69.93
2019-01-27T00:34:33.806Z,64.77
2019-01-27T00:37:05.261Z,63.83
2019-01-27T00:39:37.048Z,63.87
2019-01-27T00:42:08.585Z,64.20
2019-01-27T00:44:40.038Z,65.63
2019-01-27T00:47:11.535Z,66.87
2019-01-27T00:49:44.271Z,63.97
2019-01-27T00:52:15.750Z,68.80
2019-01-27T00:54:47.591Z,62.90
2019-01-27T00:57:19.086Z,64.27
2019-01-27T00:59:50.527Z,79.03
2019-01-27T01:02:22.046Z,62.73
2019-01-27T01:04:53.493Z,67.67
2019-01-27T01:07:24.991Z,67.17
2019-01-27T01:09:56.688Z,64.80
2019-01-27T01:12:28.591Z,69.07
2019-01-27T01:15:00.042Z,61.30
2019-01-27T01:17:31.617Z,64.43
2019-01-27T01:20:03.081Z,68.80
2019-01-27T01:22:34.547Z,61.30
2019-01-27T01:25:11.299Z,62.90
2019-01-27T01:27:42.806Z,64.40
2019-01-27T01:30:16.769Z,60.90
2019-01-27T01:32:48.248Z,62.63
2019-01-27T01:35:19.744Z,61.03
2019-01-27T01:37:51.314Z,60.40
2019-01-27T01:40:23.182Z,60.97
2019-01-27T01:42:54.748Z,60.73
2019-01-27T01:45:32.542Z,57.30
2019-01-27T01:48:04.546Z,59.93
2019-01-27T01:50:36.001Z,61.73
2019-01-27T01:53:07.458Z,57.17
2019-01-27T01:55:38.977Z,58.57
2019-01-27T01:58:10.499Z,60.43
2019-01-27T02:00:42.086Z,60.67
2019-01-27T02:03:13.550Z,58.70
2019-01-27T02:05:45.046Z,69.50
2019-01-27T02:08:16.479Z,78.73
2019-01-27T02:10:48.245Z,63.83
2019-01-27T02:13:19.930Z,56.43
2019-01-27T02:16:10.830Z,54.17
2019-01-27T02:18:42.688Z,59.97
2019-01-27T02:21:14.216Z,62.67
2019-01-27T02:23:45.666Z,75.73
2019-01-27T02:26:17.350Z,70.70
2019-01-27T02:28:48.830Z,67.87
2019-01-27T02:31:22.359Z,76.10
2019-01-27T02:33:53.835Z,54.90
2019-01-27T02:36:25.407Z,62.73
2019-01-27T02:38:56.911Z,63.40
2019-01-27T02:41:28.666Z,55.43
2019-01-27T02:44:00.165Z,61.03
2019-01-27T02:46:32.792Z,53.27
2019-01-27T02:49:04.625Z,54.57
2019-01-27T02:51:36.090Z,53.33
2019-01-27T02:54:07.564Z,54.40
2019-01-27T02:56:39.231Z,62.53
2019-01-27T02:59:11.952Z,48.10
2019-01-27T03:01:43.446Z,47.37
2019-01-27T03:04:14.902Z,59.17
2019-01-27T03:07:05.216Z,58.27
2019-01-27T03:09:40.126Z,52.40
2019-01-27T03:12:11.811Z,51.97
2019-01-27T03:14:43.610Z,49.53
2019-01-27T03:17:16.678Z,55.43
2019-01-27T03:19:48.174Z,56.73
2019-01-27T03:22:19.616Z,54.17
2019-01-27T03:24:51.103Z,57.13
2019-01-27T03:27:22.853Z,67.13
2019-01-27T03:29:54.373Z,57.70
2019-01-27T03:32:25.803Z,47.50
2019-01-27T03:34:57.290Z,51.00
2019-01-27T03:37:28.784Z,53.27
2019-01-27T03:40:00.301Z,57.23
2019-01-27T03:42:32.070Z,52.43
2019-01-27T03:45:03.551Z,53.40
2019-01-27T03:47:35.001Z,51.60
2019-01-27T03:50:09.703Z,51.83
2019-01-27T03:52:41.132Z,53.30
2019-01-27T03:55:16.392Z,51.13
2019-01-27T03:57:48.075Z,53.90
2019-01-27T04:00:21.428Z,53.73
2019-01-27T04:02:52.877Z,59.07
2019-01-27T04:05:24.332Z,54.10
2019-01-27T04:07:55.839Z,60.23
2019-01-27T04:10:27.261Z,51.87
2019-01-27T04:12:58.991Z,50.80
2019-01-27T04:15:30.500Z,65.50
2019-01-27T04:18:01.991Z,46.93
2019-01-27T04:20:33.436Z,50.00
2019-01-27T04:23:04.888Z,53.93
2019-01-27T04:25:36.395Z,52.43
2019-01-27T04:28:08.166Z,56.77
2019-01-27T04:30:39.622Z,54.17
2019-01-27T04:33:11.100Z,56.67
2019-01-27T04:35:42.551Z,56.00
2019-01-27T04:38:14.030Z,59.27
2019-01-27T04:40:45.473Z,54.73
2019-01-27T04:43:17.189Z,56.63
2019-01-27T04:45:48.635Z,57.90
2019-01-27T04:48:20.149Z,54.47
2019-01-27T04:50:51.639Z,51.23
2019-01-27T04:53:23.199Z,51.83
2019-01-27T04:55:54.667Z,54.30
2019-01-27T04:58:26.404Z,56.03
2019-01-27T05:00:57.927Z,52.30
2019-01-27T05:03:44.410Z,42.43
2019-01-27T05:06:15.853Z,61.63
2019-01-27T05:08:47.342Z,48.87
2019-01-27T05:11:19.943Z,50.87
2019-01-27T05:13:51.662Z,49.67
2019-01-27T05:16:23.253Z,54.07
2019-01-27T05:18:54.844Z,53.13
2019-01-27T05:21:26.310Z,57.20
2019-01-27T05:23:57.787Z,56.63
2019-01-27T05:26:29.214Z,59.90
2019-01-27T05:29:00.671Z,58.47
2019-01-27T05:31:32.176Z,61.53
2019-01-27T05:34:03.612Z,48.00
2019-01-27T05:36:35.071Z,53.77
2019-01-27T05:39:09.386Z,61.80
2019-01-27T05:41:40.867Z,50.37
2019-01-27T05:44:12.638Z,66.10
2019-01-27T05:46:44.081Z,53.17
2019-01-27T05:49:15.603Z,55.80
2019-01-27T05:51:47.042Z,52.67
2019-01-27T05:54:20.177Z,56.53
2019-01-27T05:56:56.518Z,53.27
2019-01-27T05:59:25.298Z,50.83
2019-01-27T06:01:56.766Z,58.83
2019-01-27T06:04:28.262Z,52.57
2019-01-27T06:06:59.702Z,56.73
2019-01-27T06:09:31.190Z,66.27
2019-01-27T06:12:02.614Z,64.37
2019-01-27T06:14:34.390Z,59.57
2019-01-27T06:17:06.124Z,67.80
2019-01-27T06:19:37.592Z,60.50
2019-01-27T06:22:09.033Z,56.93
2019-01-27T06:24:40.533Z,69.47
2019-01-27T06:27:12.014Z,73.57
2019-01-27T06:29:43.552Z,63.60
2019-01-27T06:32:28.074Z,77.53
2019-01-27T06:35:01.252Z,68.27
2019-01-27T06:37:32.703Z,65.63
2019-01-27T06:40:04.239Z,69.23
2019-01-27T06:42:36.781Z,62.13
2019-01-27T06:45:08.562Z,63.97
2019-01-27T06:47:40.094Z,62.87
2019-01-27T06:50:11.935Z,82.97
2019-01-27T06:52:43.409Z,77.53
2019-01-27T06:55:15.950Z,86.17
2019-01-27T06:57:47.445Z,63.00
2019-01-27T07:00:39.390Z,68.53
2019-01-27T07:03:16.044Z,58.23
2019-01-27T07:05:53.820Z,53.93
2019-01-27T07:08:36.207Z,72.83
2019-01-27T07:11:28.886Z,64.90
2019-01-27T07:14:17.917Z,69.70
2019-01-27T07:17:11.367Z,72.23
2019-01-27T07:20:11.012Z,77.60
2019-01-27T07:23:00.064Z,72.17
2019-01-27T07:25:53.287Z,63.93
2019-01-27T07:28:34.964Z,71.43
2019-01-27T07:31:25.343Z,70.53
2019-01-27T07:34:24.508Z,49.43
2019-01-27T07:37:21.173Z,59.80
2019-01-27T07:40:20.464Z,77.73
2019-01-27T07:43:16.679Z,75.40
2019-01-27T07:46:10.550Z,72.73
2019-01-27T07:48:59.971Z,60.57
2019-01-27T07:51:48.552Z,66.33
2019-01-27T07:54:29.976Z,69.70
2019-01-27T07:57:29.667Z,73.00
2019-01-27T08:00:21.853Z,70.63
2019-01-27T08:03:17.991Z,70.40
2019-01-27T08:06:07.279Z,80.13
2019-01-27T08:09:00.462Z,75.40
2019-01-27T08:11:59.857Z,70.57
2019-01-27T08:14:38.576Z,66.77
2019-01-27T08:17:34.967Z,76.87
2019-01-27T08:20:27.891Z,69.27
2019-01-27T08:23:10.838Z,77.93
2019-01-27T08:25:47.492Z,67.60
2019-01-27T08:28:40.825Z,81.90
2019-01-27T08:31:24.181Z,84.03
2019-01-27T08:34:26.758Z,61.63
2019-01-27T08:37:09.143Z,51.07
2019-01-27T08:39:50.422Z,90.50
2019-01-27T08:42:39.395Z,70.47
2019-01-27T08:45:15.407Z,93.03
2019-01-27T08:47:47.307Z,85.07
2019-01-27T08:50:19.941Z,73.23
2019-01-27T08:52:51.491Z,78.33
2019-01-27T08:55:23.208Z,72.60
2019-01-27T08:57:54.918Z,86.87
2019-01-27T09:00:36.611Z,80.37
2019-01-27T09:03:17.198Z,75.90
2019-01-27T09:06:07.589Z,74.17
2019-01-27T09:08:50.644Z,82.90
2019-01-27T09:11:53.169Z,74.27
2019-01-27T09:14:43.569Z,85.10
2019-01-27T09:17:35.917Z,70.17
2019-01-27T09:20:46.708Z,81.13
2019-01-27T09:23:33.899Z,76.73
2019-01-27T09:26:32.932Z,82.27
2019-01-27T09:29:17.405Z,76.90
2019-01-27T09:31:59.820Z,83.07
2019-01-27T09:34:41.992Z,77.43
2019-01-27T09:37:32.411Z,74.13
2019-01-27T09:40:21.425Z,88.33
2019-01-27T09:43:18.972Z,70.27
2019-01-27T09:46:16.945Z,86.07
2019-01-27T09:48:58.828Z,80.33
2019-01-27T09:51:55.463Z,65.00
2019-01-27T09:54:52.158Z,81.73
2019-01-27T09:57:42.521Z,98.40
2019-01-27T10:00:54.814Z,85.83
2019-01-27T10:03:43.869Z,82.13
2019-01-27T10:06:39.951Z,80.30
2019-01-27T10:09:43.465Z,75.00
2019-01-27T10:12:38.490Z,69.17
2019-01-27T10:15:39.835Z,83.73
2019-01-27T10:18:22.100Z,78.63
2019-01-27T10:21:15.729Z,69.50
2019-01-27T10:23:55.666Z,79.70
2019-01-27T10:26:49.244Z,79.60
2019-01-27T10:29:29.061Z,63.47
2019-01-27T10:32:09.576Z,67.73
2019-01-27T10:35:00.440Z,71.50
2019-01-27T10:37:56.928Z,74.23
2019-01-27T10:40:53.371Z,56.70
2019-01-27T10:43:34.719Z,74.00
2019-01-27T10:46:40.383Z,80.37
2019-01-27T10:49:33.830Z,72.70
2019-01-27T10:52:14.591Z,78.13
2019-01-27T10:55:05.015Z,66.37
2019-01-27T10:57:58.459Z,69.93
2019-01-27T11:00:51.701Z,67.77
2019-01-27T11:03:43.881Z,75.20
2019-01-27T11:06:32.889Z,91.63
2019-01-27T11:09:23.808Z,73.97
2019-01-27T11:12:13.410Z,62.90
2019-01-27T11:15:13.441Z,74.57
2019-01-27T11:18:02.755Z,76.40
2019-01-27T11:20:51.693Z,62.90
2019-01-27T11:23:42.383Z,66.47
2019-01-27T11:26:35.705Z,42.43
2019-01-27T11:29:22.054Z,60.50
2019-01-27T11:32:17.452Z,68.80
2019-01-27T11:35:06.714Z,58.93
2019-01-27T11:38:01.887Z,69.70
2019-01-27T11:40:40.613Z,66.57
2019-01-27T11:43:29.512Z,77.20
2019-01-27T11:46:18.741Z,61.73
2019-01-27T11:48:54.831Z,65.67
2019-01-27T11:51:39.975Z,61.43
2019-01-27T11:54:11.443Z,61.40
2019-01-27T11:56:43.020Z,67.63
2019-01-27T11:59:14.492Z,85.33
2019-01-27T12:01:46.041Z,64.70
2019-01-27T12:04:17.506Z,71.17
2019-01-27T12:06:48.999Z,63.70
2019-01-27T12:09:20.503Z,54.90
2019-01-27T12:11:52.189Z,58.97
2019-01-27T12:14:23.703Z,46.33
2019-01-27T12:16:55.395Z,54.27
2019-01-27T12:19:26.923Z,63.03
2019-01-27T12:21:58.415Z,53.77
2019-01-27T12:24:29.896Z,54.83
2019-01-27T12:27:01.596Z,51.73
2019-01-27T12:29:33.218Z,62.93
2019-01-27T12:32:06.506Z,54.83
2019-01-27T12:34:38.307Z,54.17
2019-01-27T12:37:09.742Z,47.03
2019-01-27T12:39:41.516Z,51.33
2019-01-27T12:42:13.171Z,61.07
2019-01-27T12:44:44.743Z,54.03
2019-01-27T12:47:16.212Z,54.60
2019-01-27T12:49:47.695Z,60.60
2019-01-27T12:52:19.342Z,57.40
2019-01-27T12:54:52.125Z,51.47
2019-01-27T12:57:23.854Z,49.53
2019-01-27T12:59:55.349Z,52.27
2019-01-27T13:02:27.052Z,53.67
2019-01-27T13:04:58.544Z,46.43
2019-01-27T13:07:29.995Z,47.20
2019-01-27T13:10:01.520Z,51.27
2019-01-27T13:12:33.119Z,43.57
2019-01-27T13:15:05.217Z,41.03
2019-01-27T13:17:36.652Z,53.57
2019-01-27T13:20:09.749Z,42.07
2019-01-27T13:22:41.222Z,35.50
2019-01-27T13:25:14.889Z,46.73
2019-01-27T13:27:46.486Z,42.30
2019-01-27T13:30:20.734Z,45.83
2019-01-27T13:32:52.258Z,38.57
2019-01-27T13:35:23.740Z,38.70
2019-01-27T13:37:55.265Z,46.00
2019-01-27T13:40:26.853Z,40.77
2019-01-27T13:42:58.787Z,37.90
2019-01-27T13:45:30.373Z,36.10
2019-01-27T13:48:01.868Z,41.23
2019-01-27T13:50:33.424Z,34.03
2019-01-27T13:53:05.215Z,39.70
2019-01-27T13:55:36.696Z,45.70
2019-01-27T13:58:08.488Z,36.77
2019-01-27T14:00:40.495Z,39.60
2019-01-27T14:03:13.238Z,36.73
2019-01-27T14:05:44.701Z,39.20
2019-01-27T14:08:16.248Z,35.37
2019-01-27T14:10:47.684Z,42.90
2019-01-27T14:13:19.408Z,34.13
2019-01-27T14:15:50.983Z,35.70
2019-01-27T14:18:22.417Z,42.03
2019-01-27T14:20:53.883Z,40.30
2019-01-27T14:23:25.364Z,32.80
2019-01-27T14:25:56.843Z,40.83
2019-01-27T14:28:29.447Z,42.93
2019-01-27T14:31:01.434Z,45.33
2019-01-27T14:33:32.899Z,36.50
2019-01-27T14:36:04.419Z,34.47
2019-01-27T14:38:35.880Z,36.00
2019-01-27T14:41:07.780Z,36.47
2019-01-27T14:43:39.549Z,31.93
2019-01-27T14:46:11.059Z,32.17
2019-01-27T14:48:43.538Z,39.43
2019-01-27T14:51:15.069Z,42.37
2019-01-27T14:53:46.573Z,40.40
2019-01-27T14:56:18.086Z,41.60
2019-01-27T14:58:50.270Z,43.60
2019-01-27T15:01:21.792Z,37.13
2019-01-27T15:03:53.254Z,40.97
2019-01-27T15:06:24.828Z,33.47
2019-01-27T15:08:56.320Z,33.67
2019-01-27T15:11:27.802Z,35.80
2019-01-27T15:13:59.465Z,34.90
2019-01-27T15:16:30.978Z,30.30
2019-01-27T15:19:02.616Z,37.93
2019-01-27T15:21:34.114Z,38.30
2019-01-27T15:24:05.608Z,28.53
2019-01-27T15:26:37.069Z,40.27
2019-01-27T15:29:08.856Z,37.87
2019-01-27T15:31:40.332Z,41.77
2019-01-27T15:34:13.024Z,37.77
2019-01-27T15:36:44.462Z,40.80
2019-01-27T15:39:16.002Z,39.87
2019-01-27T15:41:47.479Z,43.00
2019-01-27T15:44:19.008Z,37.23
2019-01-27T15:46:50.575Z,40.47
2019-01-27T15:49:22.110Z,37.07
2019-01-27T15:51:53.651Z,38.17
2019-01-27T15:54:25.214Z,42.60
2019-01-27T15:56:56.694Z,30.60
2019-01-27T15:59:28.211Z,45.90
2019-01-27T16:01:59.721Z,39.27
2019-01-27T16:04:31.219Z,42.77
2019-01-27T16:07:02.720Z,42.33
2019-01-27T16:09:34.421Z,37.83
2019-01-27T16:12:05.890Z,37.30
2019-01-27T16:14:37.596Z,38.47
2019-01-27T16:17:09.290Z,44.90
2019-01-27T16:19:40.812Z,40.13
2019-01-27T16:22:12.302Z,30.57
2019-01-27T16:24:44.305Z,45.17
2019-01-27T16:27:15.828Z,36.30
2019-01-27T16:30:09.111Z,37.93
2019-01-27T16:32:42.257Z,40.20
2019-01-27T16:35:18.871Z,32.00
2019-01-27T16:37:50.381Z,32.27
2019-01-27T16:40:21.895Z,35.33
2019-01-27T16:42:53.443Z,31.67
2019-01-27T16:45:25.210Z,34.30
2019-01-27T16:47:56.835Z,36.87
2019-01-27T16:50:28.414Z,41.20
2019-01-27T16:52:59.957Z,43.03
2019-01-27T16:55:31.717Z,36.70
2019-01-27T16:58:03.314Z,37.80
2019-01-27T17:00:34.925Z,37.33
2019-01-27T17:03:06.712Z,33.23
2019-01-27T17:05:38.241Z,37.63
2019-01-27T17:08:09.794Z,30.70
2019-01-27T17:10:41.371Z,41.60
2019-01-27T17:13:12.894Z,34.87
2019-01-27T17:15:44.925Z,31.20
2019-01-27T17:18:16.461Z,33.57
2019-01-27T17:20:47.986Z,31.90
2019-01-27T17:23:19.495Z,36.67
2019-01-27T17:25:53.580Z,29.57
2019-01-27T17:28:24.396Z,34.43
2019-01-27T17:30:56.575Z,33.70
2019-01-27T17:33:29.530Z,30.67
2019-01-27T17:36:01.090Z,35.37
2019-01-27T17:38:40.240Z,30.47
2019-01-27T17:41:06.935Z,35.10
2019-01-27T17:43:38.544Z,32.70
2019-01-27T17:46:10.269Z,31.07
2019-01-27T17:48:41.836Z,29.27
2019-01-27T17:51:13.513Z,30.63
2019-01-27T17:53:54.233Z,38.87
2019-01-27T17:56:26.065Z,38.40
2019-01-27T17:59:25.459Z,34.83
2019-01-27T18:02:14.919Z,22.80
2019-01-27T18:04:51.642Z,28.37
2019-01-27T18:07:29.022Z,28.03
2019-01-27T18:10:08.555Z,26.60
2019-01-27T18:13:04.980Z,29.13
2019-01-27T18:15:36.613Z,30.17
2019-01-27T18:18:08.324Z,33.93
2019-01-27T18:20:39.824Z,35.60
2019-01-27T18:23:11.302Z,28.37
2019-01-27T18:25:42.934Z,29.37
2019-01-27T18:28:14.457Z,29.80
2019-01-27T18:30:46.060Z,30.77
2019-01-27T18:33:18.175Z,29.87
2019-01-27T18:35:49.821Z,26.70
2019-01-27T18:38:21.325Z,24.67
2019-01-27T18:40:52.884Z,26.33
2019-01-27T18:43:25.706Z,27.03
2019-01-27T18:45:57.227Z,31.67
2019-01-27T18:48:29.035Z,27.77
2019-01-27T18:51:00.518Z,24.80
2019-01-27T18:53:48.338Z,26.13
2019-01-27T18:56:29.208Z,30.27
2019-01-27T18:59:22.594Z,22.97
2019-01-27T19:02:24.934Z,20.40
2019-01-27T19:05:14.456Z,25.53
2019-01-27T19:07:58.805Z,27.17
2019-01-27T19:10:54.670Z,24.67
2019-01-27T19:13:32.903Z,26.47
2019-01-27T19:16:32.624Z,29.63
2019-01-27T19:19:14.463Z,27.07
2019-01-27T19:22:07.703Z,26.23
2019-01-27T19:25:04.189Z,28.67
2019-01-27T19:28:00.784Z,27.60
2019-01-27T19:30:49.780Z,26.40
2019-01-27T19:33:44.533Z,26.03
2019-01-27T19:36:40.662Z,26.90
2019-01-27T19:39:43.385Z,31.00
2019-01-27T19:42:22.957Z,24.63
2019-01-27T19:45:15.825Z,24.17
2019-01-27T19:47:55.679Z,26.97
2019-01-27T19:50:49.149Z,26.87
2019-01-27T19:53:39.582Z,26.93
2019-01-27T19:56:29.971Z,23.63
2019-01-27T19:59:17.101Z,24.07
2019-01-27T20:02:07.106Z,26.63
2019-01-27T20:05:12.920Z,24.97
2019-01-27T20:08:02.129Z,26.37
2019-01-27T20:10:51.427Z,21.43
2019-01-27T20:13:44.829Z,26.90
2019-01-27T20:16:25.751Z,32.80
2019-01-27T20:19:18.918Z,47.03
2019-01-27T20:22:17.065Z,28.60
2019-01-27T20:25:08.830Z,34.10
2019-01-27T20:28:11.467Z,31.30
2019-01-27T20:31:00.436Z,24.47
2019-01-27T20:33:50.821Z,32.83
2019-01-27T20:36:35.249Z,30.03
2019-01-27T20:39:16.047Z,28.43
2019-01-27T20:41:58.436Z,33.30
2019-01-27T20:44:57.973Z,29.50
2019-01-27T20:47:48.446Z,31.70
2019-01-27T20:50:42.882Z,30.70
2019-01-27T20:53:28.851Z,29.70
2019-01-27T20:56:10.550Z,27.47
2019-01-27T20:58:56.567Z,27.30
2019-01-27T21:01:58.923Z,26.10
2019-01-27T21:04:56.459Z,21.37
2019-01-27T21:07:34.290Z,29.07
2019-01-27T21:10:25.842Z,28.83
2019-01-27T21:13:16.381Z,33.37
2019-01-27T21:16:12.692Z,29.87
2019-01-27T21:18:52.117Z,26.23
2019-01-27T21:21:23.689Z,28.53
2019-01-27T21:23:55.194Z,28.53
2019-01-27T21:26:27.273Z,23.87
2019-01-27T21:28:58.755Z,25.93
2019-01-27T21:31:30.340Z,29.30
2019-01-27T21:34:01.877Z,26.53
2019-01-27T21:36:33.650Z,23.27
2019-01-27T21:39:07.131Z,30.43
2019-01-27T21:41:38.933Z,31.03
2019-01-27T21:44:10.540Z,27.20
2019-01-27T21:46:42.007Z,30.67
2019-01-27T21:49:13.487Z,28.63
2019-01-27T21:51:45.029Z,26.70
2019-01-27T21:54:16.775Z,28.90
2019-01-27T21:56:48.248Z,29.53
2019-01-27T21:59:19.795Z,27.47
2019-01-27T22:01:51.356Z,25.37
2019-01-27T22:04:22.847Z,30.73
2019-01-27T22:06:54.348Z,24.93
2019-01-27T22:09:25.943Z,25.90
2019-01-27T22:11:59.971Z,31.27
2019-01-27T22:14:31.473Z,28.93
2019-01-27T22:17:06.041Z,27.93
2019-01-27T22:19:37.636Z,26.47
2019-01-27T22:22:09.118Z,29.07
2019-01-27T22:24:40.694Z,29.03
2019-01-27T22:27:12.501Z,31.37
2019-01-27T22:29:44.021Z,28.73
2019-01-27T22:32:15.580Z,28.20
2019-01-27T22:34:47.105Z,25.80
2019-01-27T22:37:18.701Z,26.93
2019-01-27T22:39:50.255Z,27.53
2019-01-27T22:42:22.042Z,27.73
2019-01-27T22:44:53.577Z,26.83
2019-01-27T22:47:25.127Z,29.00
2019-01-27T22:49:56.672Z,27.17
2019-01-27T22:52:28.166Z,26.00
2019-01-27T22:54:59.919Z,27.40
2019-01-27T22:57:31.407Z,29.07
2019-01-27T23:00:03.490Z,26.20
2019-01-27T23:02:36.332Z,30.50
2019-01-27T23:05:09.714Z,29.67
2019-01-27T23:07:41.135Z,29.93
2019-01-27T23:10:15.355Z,26.53
2019-01-27T23:12:46.859Z,28.17
2019-01-27T23:15:18.340Z,27.77
2019-01-27T23:17:49.855Z,31.47
2019-01-27T23:20:21.308Z,31.53
2019-01-27T23:22:52.780Z,23.23
2019-01-27T23:25:24.221Z,29.30
2019-01-27T23:27:57.297Z,26.30
2019-01-27T23:30:28.775Z,26.43
2019-01-27T23:33:00.208Z,27.07
2019-01-27T23:35:32.721Z,25.83
2019-01-27T23:38:04.175Z,25.43
2019-01-27T23:40:35.651Z,26.17
2019-01-27T23:43:07.383Z,27.30
2019-01-27T23:45:38.891Z,24.73
2019-01-27T23:48:13.124Z,27.23
2019-01-27T23:50:44.700Z,26.93
2019-01-27T23:53:16.180Z,27.73
2019-01-27T23:55:47.958Z,29.57
2019-01-27T23:58:19.671Z,25.90
